Time;durP1;ratioP1;P1;durP2;ratioP2;P2;SDS_P1;SDS_P2;PMS_P1;PMS_P2;Temp;Humidity;BMP_temperature;BMP_pressure;BME280_temperature;BME280_humidity;BME280_pressure;Samples;Min_cycle;Max_cycle;Signal;HPM_P1;HPM_P2
2023/08/11 00:00:04;;;;;;;3.47;3.27;;;;;;;;;;4897073;29;20426;-68
2023/08/11 00:02:30;;;;;;;7.40;3.07;;;;;;;;;;4896619;28;20430;-68
2023/08/11 00:04:57;;;;;;;3.03;2.93;;;;;;;;;;4897080;29;20434;-68
2023/08/11 00:07:23;;;;;;;3.00;3.00;;;;;;;;;;4896997;29;20418;-68
2023/08/11 00:09:48;;;;;;;2.90;2.80;;;;;;;;;;4897022;28;20488;-68
2023/08/11 00:12:14;;;;;;;3.50;3.30;;;;;;;;;;4896580;28;20486;-69
2023/08/11 00:14:40;;;;;;;6.20;2.93;;;;;;;;;;4896582;28;20425;-69
2023/08/11 00:17:06;;;;;;;3.27;3.17;;;;;;;;;;4896732;29;20429;-70
2023/08/11 00:19:32;;;;;;;3.27;3.17;;;;;;;;;;4896855;28;20426;-68
2023/08/11 00:21:58;;;;;;;2.60;2.50;;;;;;;;;;4896820;28;20422;-68
2023/08/11 00:24:24;;;;;;;2.90;2.60;;;;;;;;;;4896535;29;20831;-69
2023/08/11 00:26:51;;;;;;;2.30;2.30;;;;;;;;;;4896552;29;20421;-69
2023/08/11 00:29:17;;;;;;;2.40;2.33;;;;;;;;;;4896603;28;20418;-67
2023/08/11 00:31:45;;;;;;;2.10;2.10;;;;;;;;;;4896700;29;20972;-68
2023/08/11 00:34:11;;;;;;;3.20;3.00;;;;;;;;;;4894618;28;20426;-72
2023/08/11 00:36:37;;;;;;;5.40;2.73;;;;;;;;;;4896663;29;20468;-72
2023/08/11 00:39:03;;;;;;;2.50;2.40;;;;;;;;;;4896530;28;20839;-70
2023/08/11 00:41:29;;;;;;;2.70;2.50;;;;;;;;;;4895184;29;20453;-70
2023/08/11 00:43:55;;;;;;;2.37;2.17;;;;;;;;;;4895843;28;20434;-69
2023/08/11 00:46:22;;;;;;;5.20;3.17;;;;;;;;;;4896454;28;20926;-70
2023/08/11 00:48:51;;;;;;;3.87;3.00;;;;;;;;;;4896407;28;20492;-69
2023/08/11 00:51:18;;;;;;;2.70;2.50;;;;;;;;;;4896261;28;20489;-71
2023/08/11 00:53:45;;;;;;;3.50;3.07;;;;;;;;;;4895991;28;20457;-70
2023/08/11 00:56:12;;;;;;;2.90;2.80;;;;;;;;;;4896328;28;20421;-68
2023/08/11 00:58:38;;;;;;;2.97;2.77;;;;;;;;;;4896110;29;20426;-69
2023/08/11 01:01:04;;;;;;;3.20;2.80;;;;;;;;;;4896118;28;20941;-69
2023/08/11 01:03:30;;;;;;;4.73;2.60;;;;;;;;;;4895795;28;20452;-70
2023/08/11 01:06:06;;;;;;;2.70;2.70;;;;;;;;;;4896214;28;20437;-68
2023/08/11 01:08:51;;;;;;;3.00;2.80;;;;;;;;;;4894953;28;20437;-69
2023/08/11 01:11:22;;;;;;;4.07;3.30;;;;;;;;;;4896077;29;20572;-70
2023/08/11 01:13:52;;;;;;;2.63;2.50;;;;;;;;;;4895338;28;20414;-68
2023/08/11 01:16:19;;;;;;;3.70;2.90;;;;;;;;;;4896073;28;20441;-68
2023/08/11 01:18:46;;;;;;;3.33;3.10;;;;;;;;;;4894702;29;20619;-69
2023/08/11 01:21:13;;;;;;;3.40;3.30;;;;;;;;;;4895946;28;20936;-68
2023/08/11 01:23:40;;;;;;;3.43;3.13;;;;;;;;;;4895546;28;20425;-70
2023/08/11 01:26:06;;;;;;;2.97;2.87;;;;;;;;;;4895858;29;20414;-68
2023/08/11 01:28:36;;;;;;;3.37;2.90;;;;;;;;;;4895593;29;20829;-68
2023/08/11 01:31:03;;;;;;;3.23;3.13;;;;;;;;;;4895765;28;20484;-71
2023/08/11 01:33:29;;;;;;;5.37;2.87;;;;;;;;;;4895466;29;20448;-69
2023/08/11 01:35:55;;;;;;;3.63;2.50;;;;;;;;;;4895676;28;20457;-68
2023/08/11 01:38:21;;;;;;;3.20;3.00;;;;;;;;;;4895736;28;20425;-69
2023/08/11 01:40:47;;;;;;;3.07;2.93;;;;;;;;;;4895701;28;20426;-70
2023/08/11 01:43:15;;;;;;;4.73;3.10;;;;;;;;;;4895057;28;20960;-68
2023/08/11 01:45:43;;;;;;;3.23;2.93;;;;;;;;;;4894643;28;20925;-68
2023/08/11 01:48:10;;;;;;;2.83;2.60;;;;;;;;;;4894251;28;20434;-69
2023/08/11 01:50:36;;;;;;;3.00;2.90;;;;;;;;;;4895494;29;20512;-68
2023/08/11 01:53:03;;;;;;;1.97;1.97;;;;;;;;;;4895209;29;20864;-67
2023/08/11 01:55:29;;;;;;;3.27;3.03;;;;;;;;;;4895481;28;20973;-68
2023/08/11 01:57:55;;;;;;;2.53;2.43;;;;;;;;;;4895124;28;20768;-70
2023/08/11 02:00:21;;;;;;;2.70;2.70;;;;;;;;;;4895255;29;20469;-69
2023/08/11 02:02:47;;;;;;;5.50;2.97;;;;;;;;;;4895009;28;20449;-69
2023/08/11 02:05:15;;;;;;;2.70;2.60;;;;;;;;;;4895444;28;20938;-72
2023/08/11 02:07:42;;;;;;;2.97;2.90;;;;;;;;;;4895398;28;20429;-71
2023/08/11 02:10:08;;;;;;;3.10;2.80;;;;;;;;;;4895190;29;20493;-71
2023/08/11 02:12:35;;;;;;;5.13;2.87;;;;;;;;;;4894633;28;20429;-68
2023/08/11 02:15:01;;;;;;;3.23;2.90;;;;;;;;;;4895241;28;20433;-69
2023/08/11 02:17:27;;;;;;;3.53;3.43;;;;;;;;;;4895090;29;20462;-68
2023/08/11 02:19:53;;;;;;;2.97;2.80;;;;;;;;;;4895310;28;20429;-69
2023/08/11 02:22:19;;;;;;;3.43;2.70;;;;;;;;;;4894671;28;20933;-68
2023/08/11 02:24:45;;;;;;;3.03;2.60;;;;;;;;;;4895179;28;20430;-70
2023/08/11 02:27:13;;;;;;;2.60;2.50;;;;;;;;;;4894778;29;20488;-70
2023/08/11 02:29:39;;;;;;;3.30;3.20;;;;;;;;;;4894999;29;20473;-67
2023/08/11 02:32:05;;;;;;;2.97;2.70;;;;;;;;;;4894965;28;20940;-67
2023/08/11 02:34:31;;;;;;;5.23;2.90;;;;;;;;;;4894787;28;20424;-68
2023/08/11 02:36:57;;;;;;;16.63;3.20;;;;;;;;;;4895001;28;20434;-68
2023/08/11 02:39:24;;;;;;;3.80;2.80;;;;;;;;;;4895002;28;20422;-70
2023/08/11 02:41:49;;;;;;;2.50;2.40;;;;;;;;;;4893469;29;20441;-69
2023/08/11 02:44:15;;;;;;;3.60;2.50;;;;;;;;;;4894508;29;20436;-69
2023/08/11 02:46:41;;;;;;;2.60;2.50;;;;;;;;;;4894767;28;20448;-70
2023/08/11 02:49:07;;;;;;;4.73;2.50;;;;;;;;;;4894908;29;20480;-70
2023/08/11 02:51:34;;;;;;;2.57;2.57;;;;;;;;;;4894959;29;20441;-67
2023/08/11 02:54:00;;;;;;;3.00;2.90;;;;;;;;;;4894704;28;20517;-68
2023/08/11 02:56:26;;;;;;;2.80;2.70;;;;;;;;;;4894406;29;20426;-69
2023/08/11 02:58:56;;;;;;;4.63;3.53;;;;;;;;;;4897771;29;20929;-68
2023/08/11 03:01:22;;;;;;;3.20;3.10;;;;;;;;;;4897911;28;20492;-68
2023/08/11 03:03:48;;;;;;;8.70;2.90;;;;;;;;;;4897665;28;20468;-68
2023/08/11 03:06:14;;;;;;;2.93;2.80;;;;;;;;;;4898087;28;20457;-67
2023/08/11 03:08:40;;;;;;;2.57;2.57;;;;;;;;;;4897817;28;20426;-68
2023/08/11 03:11:07;;;;;;;2.30;2.30;;;;;;;;;;4897821;28;20953;-68
2023/08/11 03:13:33;;;;;;;12.83;3.33;;;;;;;;;;4897060;29;20417;-69
2023/08/11 03:15:59;;;;;;;2.60;2.60;;;;;;;;;;4897878;28;20434;-69
2023/08/11 03:18:25;;;;;;;3.13;2.93;;;;;;;;;;4897666;29;20469;-69
2023/08/11 03:20:52;;;;;;;2.90;2.80;;;;;;;;;;4897712;29;20509;-67
2023/08/11 03:23:18;;;;;;;3.60;2.70;;;;;;;;;;4897456;29;20426;-68
2023/08/11 03:25:44;;;;;;;3.30;3.00;;;;;;;;;;4897583;28;20437;-68
2023/08/11 03:28:10;;;;;;;3.07;2.97;;;;;;;;;;4897358;28;20452;-67
2023/08/11 03:30:36;;;;;;;5.07;3.40;;;;;;;;;;4897523;29;20980;-70
2023/08/11 03:33:03;;;;;;;5.00;2.87;;;;;;;;;;4897139;28;20427;-69
2023/08/11 03:35:29;;;;;;;3.67;3.50;;;;;;;;;;4897507;29;20906;-68
2023/08/11 03:37:55;;;;;;;4.73;3.57;;;;;;;;;;4897540;28;20417;-69
2023/08/11 03:40:21;;;;;;;2.73;2.60;;;;;;;;;;4896137;28;20492;-72
2023/08/11 03:42:47;;;;;;;2.50;2.40;;;;;;;;;;4896735;29;20426;-70
2023/08/11 03:45:14;;;;;;;3.47;3.27;;;;;;;;;;4897371;28;20433;-71
2023/08/11 03:47:40;;;;;;;3.40;3.20;;;;;;;;;;4896241;29;20426;-68
2023/08/11 03:50:07;;;;;;;3.17;2.80;;;;;;;;;;4897382;28;20527;-68
2023/08/11 03:52:33;;;;;;;2.70;2.60;;;;;;;;;;4896923;28;20464;-68
2023/08/11 03:54:59;;;;;;;2.30;2.30;;;;;;;;;;4897062;28;20414;-71
2023/08/11 03:57:28;;;;;;;3.13;2.53;;;;;;;;;;4896787;29;20795;-71
2023/08/11 03:59:54;;;;;;;2.47;2.43;;;;;;;;;;4897251;28;20497;-69
2023/08/11 04:02:20;;;;;;;2.77;2.77;;;;;;;;;;4896669;29;20508;-72
2023/08/11 04:04:46;;;;;;;2.63;2.57;;;;;;;;;;4897144;29;20903;-69
2023/08/11 04:07:12;;;;;;;4.10;2.97;;;;;;;;;;4896983;28;20793;-69
2023/08/11 04:09:44;;;;;;;3.03;2.93;;;;;;;;;;4896042;29;20476;-68
2023/08/11 04:12:10;;;;;;;2.90;2.90;;;;;;;;;;4896712;29;20428;-71
2023/08/11 04:14:37;;;;;;;2.73;2.40;;;;;;;;;;4896686;28;20446;-68
2023/08/11 04:17:03;;;;;;;3.43;3.20;;;;;;;;;;4896866;29;21014;-69
2023/08/11 04:19:29;;;;;;;4.03;3.43;;;;;;;;;;4896786;28;20437;-69
2023/08/11 04:21:55;;;;;;;2.87;2.77;;;;;;;;;;4895632;29;20460;-68
2023/08/11 04:24:21;;;;;;;4.53;4.23;;;;;;;;;;4896584;28;20476;-69
2023/08/11 04:26:47;;;;;;;3.63;3.10;;;;;;;;;;4896392;28;20533;-68
2023/08/11 04:29:13;;;;;;;2.20;2.10;;;;;;;;;;4896634;29;20507;-68
2023/08/11 04:31:40;;;;;;;3.20;3.00;;;;;;;;;;4896730;28;20472;-68
2023/08/11 04:34:06;;;;;;;10.70;3.60;;;;;;;;;;4896315;28;20425;-71
2023/08/11 04:36:32;;;;;;;3.53;3.23;;;;;;;;;;4896676;28;20437;-71
2023/08/11 04:38:58;;;;;;;2.70;2.60;;;;;;;;;;4895366;29;20426;-69
2023/08/11 04:41:24;;;;;;;5.37;3.10;;;;;;;;;;4896118;28;20492;-68
2023/08/11 04:43:50;;;;;;;2.90;2.73;;;;;;;;;;4896219;28;20429;-68
2023/08/11 04:46:16;;;;;;;4.67;4.37;;;;;;;;;;4896492;29;20492;-68
2023/08/11 04:48:42;;;;;;;2.47;2.47;;;;;;;;;;4896418;29;20512;-68
2023/08/11 04:51:08;;;;;;;3.27;3.17;;;;;;;;;;4895075;29;20489;-68
2023/08/11 04:53:34;;;;;;;3.00;2.90;;;;;;;;;;4893998;28;20421;-67
2023/08/11 04:56:00;;;;;;;5.10;2.73;;;;;;;;;;4893587;29;20454;-71
2023/08/11 04:58:26;;;;;;;3.80;2.90;;;;;;;;;;4896256;29;20513;-65
2023/08/11 05:00:52;;;;;;;3.05;2.85;;;;;;;;;;4894582;29;20432;-61
2023/08/11 05:03:19;;;;;;;5.43;5.13;;;;;;;;;;4895670;28;20260;-70
2023/08/11 05:05:45;;;;;;;3.37;3.27;;;;;;;;;;4895626;29;20457;-68
2023/08/11 05:08:11;;;;;;;2.67;2.43;;;;;;;;;;4896025;28;20410;-70
2023/08/11 05:10:37;;;;;;;2.47;2.27;;;;;;;;;;4895566;29;20481;-68
2023/08/11 05:13:04;;;;;;;3.77;3.30;;;;;;;;;;4895053;28;20906;-72
2023/08/11 05:15:30;;;;;;;3.77;3.60;;;;;;;;;;4895663;28;20925;-71
2023/08/11 05:17:56;;;;;;;5.80;2.57;;;;;;;;;;4895584;28;20488;-68
2023/08/11 05:20:23;;;;;;;2.40;2.40;;;;;;;;;;4895260;29;20906;-69
2023/08/11 05:22:49;;;;;;;3.47;3.30;;;;;;;;;;4895570;29;20457;-71
2023/08/11 05:25:15;;;;;;;2.60;2.50;;;;;;;;;;4895532;28;20458;-71
2023/08/11 05:27:41;;;;;;;3.87;2.83;;;;;;;;;;4895361;29;20938;-68
2023/08/11 05:30:08;;;;;;;5.00;2.60;;;;;;;;;;4895142;28;20525;-71
2023/08/11 05:32:34;;;;;;;2.83;2.73;;;;;;;;;;4895394;29;20456;-68
2023/08/11 05:35:00;;;;;;;2.30;2.20;;;;;;;;;;4895295;28;21038;-67
2023/08/11 05:37:26;;;;;;;2.90;2.80;;;;;;;;;;4895679;28;20921;-68
2023/08/11 05:39:55;;;;;;;3.30;3.20;;;;;;;;;;4895106;28;20422;-67
2023/08/11 05:42:21;;;;;;;3.03;2.93;;;;;;;;;;4894853;29;20420;-69
2023/08/11 05:44:47;;;;;;;11.13;3.53;;;;;;;;;;4893984;28;20419;-72
2023/08/11 05:47:13;;;;;;;2.90;2.80;;;;;;;;;;4895536;28;20488;-70
2023/08/11 05:49:39;;;;;;;4.47;3.17;;;;;;;;;;4892552;28;20465;-71
2023/08/11 05:52:05;;;;;;;2.80;2.80;;;;;;;;;;4895087;28;20488;-71
2023/08/11 05:54:31;;;;;;;6.83;3.00;;;;;;;;;;4894765;28;20421;-69
2023/08/11 05:56:57;;;;;;;3.43;3.27;;;;;;;;;;4894672;29;20882;-71
2023/08/11 05:59:24;;;;;;;10.13;4.47;;;;;;;;;;4895029;28;20551;-70
2023/08/11 06:01:50;;;;;;;5.13;4.70;;;;;;;;;;4895066;28;20461;-69
2023/08/11 06:04:16;;;;;;;6.80;3.50;;;;;;;;;;4894612;29;20422;-67
2023/08/11 06:06:42;;;;;;;3.07;2.77;;;;;;;;;;4894402;28;20441;-68
2023/08/11 06:09:09;;;;;;;3.10;3.10;;;;;;;;;;4894960;28;20437;-68
2023/08/11 06:11:35;;;;;;;3.67;3.50;;;;;;;;;;4893903;28;20508;-68
2023/08/11 06:14:02;;;;;;;6.30;3.70;;;;;;;;;;4894487;29;20430;-70
2023/08/11 06:16:28;;;;;;;9.70;3.57;;;;;;;;;;4894956;28;20438;-62
2023/08/11 06:18:55;;;;;;;4.67;4.37;;;;;;;;;;4895032;28;20995;-61
2023/08/11 06:21:21;;;;;;;5.50;3.90;;;;;;;;;;4895250;28;20421;-69
2023/08/11 06:23:47;;;;;;;3.87;3.57;;;;;;;;;;4893577;29;20845;-72
2023/08/11 06:26:13;;;;;;;10.17;3.70;;;;;;;;;;4894634;28;20784;-71
2023/08/11 06:28:41;;;;;;;3.30;3.20;;;;;;;;;;4894990;28;20521;-72
2023/08/11 06:31:07;;;;;;;3.87;3.67;;;;;;;;;;4894994;28;20872;-70
2023/08/11 06:33:33;;;;;;;3.77;3.57;;;;;;;;;;4897423;28;20434;-69
2023/08/11 06:35:59;;;;;;;6.43;3.50;;;;;;;;;;4898092;28;20791;-72
2023/08/11 06:38:25;;;;;;;4.17;3.97;;;;;;;;;;4898302;28;20923;-69
2023/08/11 06:40:51;;;;;;;4.00;3.90;;;;;;;;;;4897998;28;20457;-70
2023/08/11 06:43:17;;;;;;;3.60;3.40;;;;;;;;;;4896680;28;20438;-73
2023/08/11 06:45:45;;;;;;;3.70;3.17;;;;;;;;;;4897912;28;20763;-70
2023/08/11 06:48:11;;;;;;;5.80;3.83;;;;;;;;;;4897600;28;20448;-74
2023/08/11 06:50:37;;;;;;;5.13;4.93;;;;;;;;;;4898043;29;20477;-72
2023/08/11 06:53:03;;;;;;;3.70;3.60;;;;;;;;;;4892944;29;20576;-68
2023/08/11 06:55:29;;;;;;;4.53;4.13;;;;;;;;;;4897413;28;20433;-71
2023/08/11 06:57:55;;;;;;;4.90;3.60;;;;;;;;;;4896894;29;20596;-72
2023/08/11 07:00:21;;;;;;;3.13;3.03;;;;;;;;;;4895855;29;20438;-73
2023/08/11 07:02:47;;;;;;;3.77;3.47;;;;;;;;;;4895601;29;20482;-71
2023/08/11 07:05:13;;;;;;;3.50;3.20;;;;;;;;;;4895165;28;20906;-72
2023/08/11 07:07:39;;;;;;;3.90;3.73;;;;;;;;;;4897221;28;20646;-70
2023/08/11 07:10:06;;;;;;;3.90;3.70;;;;;;;;;;4897663;28;20520;-73
2023/08/11 07:12:31;;;;;;;4.37;4.10;;;;;;;;;;4896651;28;20430;-71
2023/08/11 07:14:57;;;;;;;6.87;3.67;;;;;;;;;;4897678;28;20457;-72
2023/08/11 07:17:24;;;;;;;9.13;3.77;;;;;;;;;;4897117;29;20432;-73
2023/08/11 07:19:50;;;;;;;3.57;3.37;;;;;;;;;;4897339;29;20445;-69
2023/08/11 07:22:17;;;;;;;4.77;4.00;;;;;;;;;;4896217;28;20520;-68
2023/08/11 07:24:43;;;;;;;5.90;3.97;;;;;;;;;;4895266;28;20473;-68
2023/08/11 07:27:09;;;;;;;3.73;3.53;;;;;;;;;;4895942;28;20488;-69
2023/08/11 07:29:35;;;;;;;2.80;2.70;;;;;;;;;;4897457;28;20433;-70
2023/08/11 07:32:01;;;;;;;3.70;3.40;;;;;;;;;;4896741;28;20464;-68
2023/08/11 07:34:27;;;;;;;3.13;2.77;;;;;;;;;;4895759;28;20446;-68
2023/08/11 07:36:53;;;;;;;11.70;3.47;;;;;;;;;;4896959;29;20449;-72
2023/08/11 07:39:19;;;;;;;3.77;3.47;;;;;;;;;;4897017;28;20530;-70
2023/08/11 07:41:44;;;;;;;3.47;3.17;;;;;;;;;;4896907;29;22562;-70
2023/08/11 07:44:11;;;;;;;5.37;3.03;;;;;;;;;;4895752;28;20536;-69
2023/08/11 07:46:36;;;;;;;4.00;3.70;;;;;;;;;;4897403;28;20189;-68
2023/08/11 07:49:02;;;;;;;3.27;3.17;;;;;;;;;;4896016;29;20792;-68
2023/08/11 07:51:29;;;;;;;2.93;2.83;;;;;;;;;;4897222;28;20481;-67
2023/08/11 07:53:54;;;;;;;3.27;3.03;;;;;;;;;;4896203;28;20470;-67
2023/08/11 07:56:20;;;;;;;3.60;3.30;;;;;;;;;;4896820;28;20949;-69
2023/08/11 07:58:47;;;;;;;3.53;3.17;;;;;;;;;;4897124;28;20425;-68
2023/08/11 08:01:13;;;;;;;6.93;3.43;;;;;;;;;;4895762;28;20247;-69
2023/08/11 08:03:40;;;;;;;3.73;3.53;;;;;;;;;;4896752;29;20422;-70
2023/08/11 08:06:06;;;;;;;2.80;2.70;;;;;;;;;;4897119;28;20417;-71
2023/08/11 08:08:35;;;;;;;5.07;3.10;;;;;;;;;;4897033;28;20764;-70
2023/08/11 08:11:02;;;;;;;3.73;3.37;;;;;;;;;;4896542;29;20489;-71
2023/08/11 08:13:28;;;;;;;3.00;2.90;;;;;;;;;;4896628;28;20464;-71
2023/08/11 08:15:55;;;;;;;16.47;3.30;;;;;;;;;;4895860;28;20841;-69
2023/08/11 08:18:21;;;;;;;4.20;2.87;;;;;;;;;;4896738;28;20965;-70
2023/08/11 08:20:47;;;;;;;3.13;2.53;;;;;;;;;;4896893;29;20560;-69
2023/08/11 08:23:13;;;;;;;3.20;3.10;;;;;;;;;;4895167;29;20646;-68
2023/08/11 08:25:39;;;;;;;3.30;3.20;;;;;;;;;;4896441;28;20441;-69
2023/08/11 08:28:05;;;;;;;7.17;1.80;;;;;;;;;;4896776;28;21004;-69
2023/08/11 08:30:31;;;;;;;7.50;3.20;;;;;;;;;;4896686;29;20485;-68
2023/08/11 08:32:57;;;;;;;6.03;3.50;;;;;;;;;;4896403;28;20773;-67
2023/08/11 08:35:24;;;;;;;3.50;3.40;;;;;;;;;;4896542;29;20429;-68
2023/08/11 08:37:50;;;;;;;9.47;2.90;;;;;;;;;;4896590;28;20418;-68
2023/08/11 08:40:15;;;;;;;3.40;2.93;;;;;;;;;;4896702;28;20838;-68
2023/08/11 08:42:42;;;;;;;2.90;2.77;;;;;;;;;;4895970;28;20417;-68
2023/08/11 08:45:08;;;;;;;7.20;3.20;;;;;;;;;;4896495;29;20430;-71
2023/08/11 08:47:35;;;;;;;3.40;3.10;;;;;;;;;;4896468;28;20424;-70
2023/08/11 08:50:03;;;;;;;2.93;2.73;;;;;;;;;;4896392;29;20473;-68
2023/08/11 08:52:30;;;;;;;2.53;2.43;;;;;;;;;;4896110;28;20524;-68
2023/08/11 08:54:57;;;;;;;6.80;3.30;;;;;;;;;;4895954;28;20442;-67
2023/08/11 08:57:27;;;;;;;3.00;2.90;;;;;;;;;;4895998;28;20430;-71
2023/08/11 08:59:53;;;;;;;3.20;3.10;;;;;;;;;;4896324;28;20784;-70
2023/08/11 09:02:20;;;;;;;4.10;3.00;;;;;;;;;;4895810;29;20433;-68
2023/08/11 09:04:47;;;;;;;3.27;3.17;;;;;;;;;;4896189;28;20476;-69
2023/08/11 09:07:13;;;;;;;7.53;2.67;;;;;;;;;;4896237;29;20430;-70
2023/08/11 09:09:39;;;;;;;3.17;3.07;;;;;;;;;;4896027;29;20430;-69
2023/08/11 09:12:05;;;;;;;3.70;2.97;;;;;;;;;;4895902;28;20445;-70
2023/08/11 09:14:31;;;;;;;2.67;2.60;;;;;;;;;;4895676;28;20791;-67
2023/08/11 09:17:02;;;;;;;13.40;4.23;;;;;;;;;;4895975;28;20441;-69
2023/08/11 09:19:28;;;;;;;4.50;2.70;;;;;;;;;;4895893;28;20232;-68
2023/08/11 09:21:54;;;;;;;4.10;2.63;;;;;;;;;;4894839;28;20921;-69
2023/08/11 09:24:22;;;;;;;2.70;2.60;;;;;;;;;;4895698;28;20787;-68
2023/08/11 09:26:49;;;;;;;2.27;2.27;;;;;;;;;;4895520;29;20414;-67
2023/08/11 09:29:15;;;;;;;3.60;2.53;;;;;;;;;;4895967;29;20521;-68
2023/08/11 09:31:41;;;;;;;3.10;2.90;;;;;;;;;;4895782;28;20490;-67
2023/08/11 09:34:15;;;;;;;3.20;3.00;;;;;;;;;;4895517;28;20720;-69
2023/08/11 09:36:42;;;;;;;2.50;2.40;;;;;;;;;;4895852;28;20468;-69
2023/08/11 09:39:08;;;;;;;2.90;2.80;;;;;;;;;;4895723;28;20472;-72
2023/08/11 09:41:54;;;;;;;4.53;3.73;;;;;;;;;;4895388;28;20418;-70
2023/08/11 09:44:24;;;;;;;3.10;2.93;;;;;;;;;;4895225;29;20937;-72
2023/08/11 09:46:50;;;;;;;3.40;3.10;;;;;;;;;;4895706;28;20493;-71
2023/08/11 09:49:16;;;;;;;2.40;2.40;;;;;;;;;;4895629;28;20430;-69
2023/08/11 09:51:42;;;;;;;3.20;3.10;;;;;;;;;;4895464;28;20523;-69
2023/08/11 09:54:10;;;;;;;2.83;2.63;;;;;;;;;;4895121;28;20476;-71
2023/08/11 09:56:37;;;;;;;2.67;2.57;;;;;;;;;;4895093;28;20429;-67
2023/08/11 09:59:04;;;;;;;3.00;2.90;;;;;;;;;;4895567;28;20493;-70
2023/08/11 10:01:34;;;;;;;3.10;2.80;;;;;;;;;;4895283;28;20795;-69
2023/08/11 10:04:01;;;;;;;7.30;2.80;;;;;;;;;;4894991;29;20497;-68
2023/08/11 10:06:28;;;;;;;3.07;2.63;;;;;;;;;;4894574;28;20433;-70
2023/08/11 10:08:54;;;;;;;4.10;3.10;;;;;;;;;;4895216;28;20461;-68
2023/08/11 10:11:22;;;;;;;3.50;3.30;;;;;;;;;;4894922;29;20488;-67
2023/08/11 10:13:48;;;;;;;3.43;3.13;;;;;;;;;;4894930;28;20444;-68
2023/08/11 10:16:15;;;;;;;2.93;2.73;;;;;;;;;;4895261;29;20437;-68
2023/08/11 10:18:42;;;;;;;2.40;2.30;;;;;;;;;;4895064;29;20536;-68
2023/08/11 10:21:09;;;;;;;4.20;2.93;;;;;;;;;;4895247;28;20418;-68
2023/08/11 10:23:35;;;;;;;3.77;3.57;;;;;;;;;;4894909;29;20429;-69
2023/08/11 10:26:01;;;;;;;7.63;2.60;;;;;;;;;;4894763;28;20913;-69
2023/08/11 10:28:28;;;;;;;4.53;2.43;;;;;;;;;;4895089;29;20450;-68
2023/08/11 10:30:58;;;;;;;2.20;2.20;;;;;;;;;;4895056;28;20581;-69
2023/08/11 10:33:28;;;;;;;2.80;2.70;;;;;;;;;;4892410;28;20445;-68
2023/08/11 10:35:56;;;;;;;2.60;2.40;;;;;;;;;;4893651;29;20422;-68
2023/08/11 10:38:32;;;;;;;2.97;2.77;;;;;;;;;;4893665;29;20880;-68
2023/08/11 10:41:03;;;;;;;6.40;2.77;;;;;;;;;;4893440;28;20436;-68
2023/08/11 10:43:40;;;;;;;8.67;3.07;;;;;;;;;;4894511;29;20425;-70
2023/08/11 10:46:25;;;;;;;2.50;2.40;;;;;;;;;;4894606;29;20441;-69
2023/08/11 10:48:52;;;;;;;3.07;2.80;;;;;;;;;;4894600;28;20433;-70
2023/08/11 10:51:24;;;;;;;2.47;2.37;;;;;;;;;;4894906;28;20881;-68
2023/08/11 10:53:50;;;;;;;2.50;2.40;;;;;;;;;;4894479;28;20905;-68
2023/08/11 10:56:26;;;;;;;5.40;3.00;;;;;;;;;;4894293;28;20747;-68
2023/08/11 10:58:53;;;;;;;7.57;2.50;;;;;;;;;;4894876;28;20508;-69
2023/08/11 11:01:19;;;;;;;2.40;2.30;;;;;;;;;;4894697;29;20430;-71
2023/08/11 11:03:45;;;;;;;2.50;2.40;;;;;;;;;;4894415;28;20574;-69
2023/08/11 11:06:15;;;;;;;2.50;2.40;;;;;;;;;;4894758;28;20842;-67
2023/08/11 11:08:41;;;;;;;7.00;3.33;;;;;;;;;;4894677;28;20418;-68
2023/08/11 11:11:07;;;;;;;3.07;2.97;;;;;;;;;;4894288;28;20488;-68
2023/08/11 11:13:33;;;;;;;2.07;2.07;;;;;;;;;;4894310;29;20527;-67
2023/08/11 11:15:59;;;;;;;2.63;2.63;;;;;;;;;;4893453;29;20973;-66
2023/08/11 11:18:27;;;;;;;1.97;1.97;;;;;;;;;;4895460;28;20985;-67
2023/08/11 11:20:53;;;;;;;2.73;2.53;;;;;;;;;;4897752;28;20440;-68
2023/08/11 11:23:19;;;;;;;8.83;2.60;;;;;;;;;;4897394;29;20433;-69
2023/08/11 11:25:45;;;;;;;1.77;1.77;;;;;;;;;;4896098;28;20418;-69
2023/08/11 11:28:12;;;;;;;8.17;3.10;;;;;;;;;;4897769;29;20193;-70
2023/08/11 11:30:38;;;;;;;2.70;2.60;;;;;;;;;;4897424;28;20635;-69
2023/08/11 11:33:04;;;;;;;2.47;2.47;;;;;;;;;;4897258;29;20861;-69
2023/08/11 11:35:30;;;;;;;2.47;2.47;;;;;;;;;;4897594;28;20422;-68
2023/08/11 11:37:58;;;;;;;2.30;2.20;;;;;;;;;;4897489;28;20417;-68
2023/08/11 11:40:24;;;;;;;2.43;2.17;;;;;;;;;;4897171;28;20466;-70
2023/08/11 11:42:50;;;;;;;2.43;2.33;;;;;;;;;;4896935;29;20462;-69
2023/08/11 11:45:16;;;;;;;2.20;2.10;;;;;;;;;;4897413;29;20480;-70
2023/08/11 11:47:46;;;;;;;3.07;2.87;;;;;;;;;;4897440;29;20866;-71
2023/08/11 11:50:11;;;;;;;2.17;2.17;;;;;;;;;;4897255;28;20468;-67
2023/08/11 11:52:37;;;;;;;6.90;2.00;;;;;;;;;;4896865;28;20434;-70
2023/08/11 11:55:05;;;;;;;2.00;2.00;;;;;;;;;;4896828;29;20417;-69
2023/08/11 11:57:31;;;;;;;2.27;2.27;;;;;;;;;;4897202;29;20429;-69
2023/08/11 11:59:57;;;;;;;3.07;2.50;;;;;;;;;;4897137;28;20432;-70
2023/08/11 12:02:23;;;;;;;6.90;2.50;;;;;;;;;;4896706;29;20430;-69
2023/08/11 12:04:50;;;;;;;2.00;2.00;;;;;;;;;;4897087;29;20418;-70
2023/08/11 12:07:32;;;;;;;2.37;2.37;;;;;;;;;;4897090;28;20422;-70
2023/08/11 12:09:58;;;;;;;2.33;2.23;;;;;;;;;;4896569;28;20556;-72
2023/08/11 12:12:24;;;;;;;2.70;2.60;;;;;;;;;;4896709;28;20468;-71
2023/08/11 12:14:50;;;;;;;2.03;2.03;;;;;;;;;;4897014;28;20518;-71
2023/08/11 12:17:16;;;;;;;2.13;2.13;;;;;;;;;;4896712;28;20532;-71
2023/08/11 12:19:44;;;;;;;3.90;2.40;;;;;;;;;;4896947;29;20433;-71
2023/08/11 12:22:10;;;;;;;2.00;2.00;;;;;;;;;;4896698;28;20856;-71
2023/08/11 12:24:36;;;;;;;2.70;2.60;;;;;;;;;;4896576;28;20422;-70
2023/08/11 12:27:03;;;;;;;2.27;2.17;;;;;;;;;;4896388;29;20434;-70
2023/08/11 12:29:29;;;;;;;3.27;2.03;;;;;;;;;;4896137;28;20422;-69
2023/08/11 12:31:55;;;;;;;6.43;1.90;;;;;;;;;;4896510;29;20492;-71
2023/08/11 12:34:21;;;;;;;2.10;2.00;;;;;;;;;;4896265;28;20418;-68
2023/08/11 12:36:47;;;;;;;2.43;2.33;;;;;;;;;;4896659;28;20914;-68
2023/08/11 12:39:13;;;;;;;2.10;2.10;;;;;;;;;;4896564;28;20780;-70
2023/08/11 12:41:39;;;;;;;2.07;2.00;;;;;;;;;;4896330;28;20889;-70
2023/08/11 12:44:05;;;;;;;2.47;2.37;;;;;;;;;;4896152;29;21037;-70
2023/08/11 12:46:31;;;;;;;3.03;2.57;;;;;;;;;;4896457;28;20520;-71
2023/08/11 12:48:57;;;;;;;2.80;2.60;;;;;;;;;;4896449;29;20520;-71
2023/08/11 12:51:24;;;;;;;1.93;1.90;;;;;;;;;;4896278;28;20489;-69
2023/08/11 12:53:50;;;;;;;2.60;2.17;;;;;;;;;;4896053;29;20422;-68
2023/08/11 12:56:15;;;;;;;1.67;1.57;;;;;;;;;;4896032;28;20525;-68
2023/08/11 12:58:42;;;;;;;2.70;2.60;;;;;;;;;;4896402;28;20213;-68
2023/08/11 13:01:08;;;;;;;2.63;2.43;;;;;;;;;;4896212;28;20426;-72
2023/08/11 13:03:34;;;;;;;3.13;2.13;;;;;;;;;;4894563;28;20441;-72
2023/08/11 13:06:00;;;;;;;1.90;1.80;;;;;;;;;;4896250;28;20429;-70
2023/08/11 13:08:26;;;;;;;1.53;1.53;;;;;;;;;;4896173;28;20505;-69
2023/08/11 13:10:52;;;;;;;2.00;2.00;;;;;;;;;;4895862;28;20500;-70
2023/08/11 13:13:18;;;;;;;1.90;1.90;;;;;;;;;;4895718;28;20418;-71
2023/08/11 13:15:44;;;;;;;1.90;1.80;;;;;;;;;;4896039;29;20426;-71
2023/08/11 13:18:10;;;;;;;1.70;1.60;;;;;;;;;;4895911;28;20954;-72
2023/08/11 13:20:36;;;;;;;1.53;1.37;;;;;;;;;;4896111;29;20453;-72
2023/08/11 13:23:02;;;;;;;1.90;1.90;;;;;;;;;;4895652;29;20500;-71
2023/08/11 13:25:28;;;;;;;2.07;1.83;;;;;;;;;;4895599;28;20456;-73
2023/08/11 13:27:54;;;;;;;1.00;1.00;;;;;;;;;;4895937;28;20445;-71
2023/08/11 13:30:21;;;;;;;1.13;1.13;;;;;;;;;;4895806;28;20480;-70
2023/08/11 13:32:47;;;;;;;1.70;1.70;;;;;;;;;;4895494;28;20441;-68
2023/08/11 13:35:13;;;;;;;1.57;1.40;;;;;;;;;;4895937;28;20418;-70
2023/08/11 13:37:40;;;;;;;2.10;1.90;;;;;;;;;;4895817;28;20181;-69
2023/08/11 13:40:06;;;;;;;2.00;1.93;;;;;;;;;;4895444;29;20425;-68
2023/08/11 13:42:32;;;;;;;2.83;2.73;;;;;;;;;;4895422;29;20425;-73
2023/08/11 13:44:58;;;;;;;2.20;1.60;;;;;;;;;;4895728;28;20548;-70
2023/08/11 13:47:27;;;;;;;8.33;1.60;;;;;;;;;;4895645;28;20441;-69
2023/08/11 13:49:53;;;;;;;1.53;1.43;;;;;;;;;;4895373;28;20989;-72
2023/08/11 13:52:19;;;;;;;1.40;1.30;;;;;;;;;;4895359;28;20422;-71
2023/08/11 13:54:58;;;;;;;1.80;1.30;;;;;;;;;;4895233;28;20763;-72
2023/08/11 13:57:25;;;;;;;2.30;1.73;;;;;;;;;;4895497;28;20414;-70
2023/08/11 13:59:51;;;;;;;1.73;1.20;;;;;;;;;;4895470;28;20523;-71
2023/08/11 14:02:17;;;;;;;1.57;1.57;;;;;;;;;;4894995;28;20430;-72
2023/08/11 14:04:43;;;;;;;1.47;0.90;;;;;;;;;;4895482;28;20433;-68
2023/08/11 14:07:09;;;;;;;1.60;1.60;;;;;;;;;;4895525;28;20501;-69
2023/08/11 14:09:35;;;;;;;3.60;1.40;;;;;;;;;;4894992;29;20584;-69
2023/08/11 14:12:00;;;;;;;2.67;1.50;;;;;;;;;;4895200;28;20259;-68
2023/08/11 14:14:26;;;;;;;1.60;1.50;;;;;;;;;;4894955;28;20189;-67
2023/08/11 14:16:52;;;;;;;1.37;1.37;;;;;;;;;;4895424;29;20189;-70
2023/08/11 14:19:18;;;;;;;1.50;1.43;;;;;;;;;;4895373;28;20237;-67
2023/08/11 14:21:44;;;;;;;1.37;1.33;;;;;;;;;;4895224;29;20438;-68
2023/08/11 14:24:10;;;;;;;2.73;2.13;;;;;;;;;;4894782;28;20524;-69
2023/08/11 14:26:36;;;;;;;2.40;1.20;;;;;;;;;;4894787;28;20437;-67
2023/08/11 14:29:05;;;;;;;3.90;1.30;;;;;;;;;;4895264;29;20453;-67
2023/08/11 14:31:31;;;;;;;1.30;1.30;;;;;;;;;;4895077;29;20492;-70
2023/08/11 14:33:57;;;;;;;1.30;1.20;;;;;;;;;;4894762;28;20426;-69
2023/08/11 14:36:23;;;;;;;10.53;2.00;;;;;;;;;;4895107;29;20440;-69
2023/08/11 14:38:49;;;;;;;2.30;1.53;;;;;;;;;;4893751;28;20773;-68